sensor_id;sensor_type;location;lat;lon;timestamp;temperature;humidity
68556;HTU21D;55544;51.032;5.866;2023-06-10T00:02:10;24.89;49.76
68556;HTU21D;55544;51.032;5.866;2023-06-10T00:04:36;24.89;49.78
68556;HTU21D;55544;51.032;5.866;2023-06-10T00:07:05;24.84;49.92
68556;HTU21D;55544;51.032;5.866;2023-06-10T00:09:37;24.77;49.98
68556;HTU21D;55544;51.032;5.866;2023-06-10T00:12:04;24.78;49.95
68556;HTU21D;55544;51.032;5.866;2023-06-10T00:14:30;24.73;50.14
68556;HTU21D;55544;51.032;5.866;2023-06-10T00:16:56;24.71;50.18
68556;HTU21D;55544;51.032;5.866;2023-06-10T00:19:23;24.59;50.50
68556;HTU21D;55544;51.032;5.866;2023-06-10T00:21:52;24.51;50.76
68556;HTU21D;55544;51.032;5.866;2023-06-10T00:24:18;24.48;50.73
68556;HTU21D;55544;51.032;5.866;2023-06-10T00:26:44;24.49;50.76
68556;HTU21D;55544;51.032;5.866;2023-06-10T00:29:09;24.51;50.68
68556;HTU21D;55544;51.032;5.866;2023-06-10T00:31:37;24.46;50.82
68556;HTU21D;55544;51.032;5.866;2023-06-10T00:34:06;24.42;50.98
68556;HTU21D;55544;51.032;5.866;2023-06-10T00:36:33;24.42;50.91
68556;HTU21D;55544;51.032;5.866;2023-06-10T00:38:59;24.43;50.81
68556;HTU21D;55544;51.032;5.866;2023-06-10T00:41:25;24.45;50.79
68556;HTU21D;55544;51.032;5.866;2023-06-10T00:43:53;24.48;50.66
68556;HTU21D;55544;51.032;5.866;2023-06-10T00:46:21;24.50;50.65
68556;HTU21D;55544;51.032;5.866;2023-06-10T00:48:47;24.51;50.70
68556;HTU21D;55544;51.032;5.866;2023-06-10T00:51:13;24.50;50.68
68556;HTU21D;55544;51.032;5.866;2023-06-10T00:53:40;24.48;50.66
68556;HTU21D;55544;51.032;5.866;2023-06-10T00:56:08;24.46;50.81
68556;HTU21D;55544;51.032;5.866;2023-06-10T00:58:35;24.43;50.94
68556;HTU21D;55544;51.032;5.866;2023-06-10T01:01:01;24.36;51.22
68556;HTU21D;55544;51.032;5.866;2023-06-10T01:03:27;24.27;51.53
68556;HTU21D;55544;51.032;5.866;2023-06-10T01:06:23;24.23;51.63
68556;HTU21D;55544;51.032;5.866;2023-06-10T01:09:01;24.20;51.73
68556;HTU21D;55544;51.032;5.866;2023-06-10T01:11:36;24.18;51.79
68556;HTU21D;55544;51.032;5.866;2023-06-10T01:14:08;24.14;51.88
68556;HTU21D;55544;51.032;5.866;2023-06-10T01:16:35;24.09;51.91
68556;HTU21D;55544;51.032;5.866;2023-06-10T01:19:03;23.97;52.22
68556;HTU21D;55544;51.032;5.866;2023-06-10T01:21:28;23.83;52.69
68556;HTU21D;55544;51.032;5.866;2023-06-10T01:23:55;23.74;52.91
68556;HTU21D;55544;51.032;5.866;2023-06-10T01:26:28;23.72;52.94
68556;HTU21D;55544;51.032;5.866;2023-06-10T01:29:00;23.72;52.85
68556;HTU21D;55544;51.032;5.866;2023-06-10T01:31:49;23.71;52.85
68556;HTU21D;55544;51.032;5.866;2023-06-10T01:34:19;23.72;52.82
68556;HTU21D;55544;51.032;5.866;2023-06-10T01:36:48;23.70;52.91
68556;HTU21D;55544;51.032;5.866;2023-06-10T01:39:17;23.69;52.92
68556;HTU21D;55544;51.032;5.866;2023-06-10T01:41:44;23.64;53.14
68556;HTU21D;55544;51.032;5.866;2023-06-10T01:44:10;23.54;53.45
68556;HTU21D;55544;51.032;5.866;2023-06-10T01:46:39;23.49;53.68
68556;HTU21D;55544;51.032;5.866;2023-06-10T01:49:04;23.44;53.79
68556;HTU21D;55544;51.032;5.866;2023-06-10T01:51:30;23.40;53.83
68556;HTU21D;55544;51.032;5.866;2023-06-10T01:53:57;23.36;53.92
68556;HTU21D;55544;51.032;5.866;2023-06-10T01:56:22;23.23;54.17
68556;HTU21D;55544;51.032;5.866;2023-06-10T01:58:48;23.03;54.72
68556;HTU21D;55544;51.032;5.866;2023-06-10T02:01:14;22.85;55.29
68556;HTU21D;55544;51.032;5.866;2023-06-10T02:03:40;22.84;55.42
68556;HTU21D;55544;51.032;5.866;2023-06-10T02:06:06;22.87;55.28
68556;HTU21D;55544;51.032;5.866;2023-06-10T02:08:32;22.90;55.16
68556;HTU21D;55544;51.032;5.866;2023-06-10T02:10:59;22.92;55.08
68556;HTU21D;55544;51.032;5.866;2023-06-10T02:13:27;22.94;54.96
68556;HTU21D;55544;51.032;5.866;2023-06-10T02:15:53;22.95;54.94
68556;HTU21D;55544;51.032;5.866;2023-06-10T02:18:20;22.95;54.92
68556;HTU21D;55544;51.032;5.866;2023-06-10T02:20:46;22.95;55.00
68556;HTU21D;55544;51.032;5.866;2023-06-10T02:23:12;22.92;55.07
68556;HTU21D;55544;51.032;5.866;2023-06-10T02:25:38;22.91;55.09
68556;HTU21D;55544;51.032;5.866;2023-06-10T02:28:04;22.87;55.14
68556;HTU21D;55544;51.032;5.866;2023-06-10T02:30:29;22.86;55.15
68556;HTU21D;55544;51.032;5.866;2023-06-10T02:32:55;22.77;55.36
68556;HTU21D;55544;51.032;5.866;2023-06-10T02:35:23;22.75;55.43
68556;HTU21D;55544;51.032;5.866;2023-06-10T02:37:50;22.69;55.55
68556;HTU21D;55544;51.032;5.866;2023-06-10T02:40:18;22.65;55.71
68556;HTU21D;55544;51.032;5.866;2023-06-10T02:42:43;22.62;55.81
68556;HTU21D;55544;51.032;5.866;2023-06-10T02:45:09;22.60;55.84
68556;HTU21D;55544;51.032;5.866;2023-06-10T02:47:39;22.55;55.83
68556;HTU21D;55544;51.032;5.866;2023-06-10T02:50:06;22.39;56.18
68556;HTU21D;55544;51.032;5.866;2023-06-10T02:52:38;22.36;56.25
68556;HTU21D;55544;51.032;5.866;2023-06-10T02:55:05;22.36;56.22
68556;HTU21D;55544;51.032;5.866;2023-06-10T02:57:31;22.34;56.23
68556;HTU21D;55544;51.032;5.866;2023-06-10T02:59:57;22.32;56.21
68556;HTU21D;55544;51.032;5.866;2023-06-10T03:02:24;22.17;56.47
68556;HTU21D;55544;51.032;5.866;2023-06-10T03:04:55;21.96;57.08
68556;HTU21D;55544;51.032;5.866;2023-06-10T03:07:21;21.73;57.99
68556;HTU21D;55544;51.032;5.866;2023-06-10T03:09:50;21.51;59.03
68556;HTU21D;55544;51.032;5.866;2023-06-10T03:12:16;21.37;59.63
68556;HTU21D;55544;51.032;5.866;2023-06-10T03:14:45;21.38;59.62
68556;HTU21D;55544;51.032;5.866;2023-06-10T03:17:11;21.48;59.16
68556;HTU21D;55544;51.032;5.866;2023-06-10T03:19:40;21.55;58.78
68556;HTU21D;55544;51.032;5.866;2023-06-10T03:24:37;21.68;58.53
68556;HTU21D;55544;51.032;5.866;2023-06-10T03:27:07;21.75;58.27
68556;HTU21D;55544;51.032;5.866;2023-06-10T03:29:34;21.78;58.15
68556;HTU21D;55544;51.032;5.866;2023-06-10T03:32:00;21.78;58.15
68556;HTU21D;55544;51.032;5.866;2023-06-10T03:34:27;21.75;58.22
68556;HTU21D;55544;51.032;5.866;2023-06-10T03:36:53;21.60;58.70
68556;HTU21D;55544;51.032;5.866;2023-06-10T03:39:19;21.45;59.24
68556;HTU21D;55544;51.032;5.866;2023-06-10T03:41:45;21.32;59.68
68556;HTU21D;55544;51.032;5.866;2023-06-10T03:44:11;21.23;59.99
68556;HTU21D;55544;51.032;5.866;2023-06-10T03:46:37;21.18;60.14
68556;HTU21D;55544;51.032;5.866;2023-06-10T03:49:03;21.15;60.34
68556;HTU21D;55544;51.032;5.866;2023-06-10T03:51:30;21.15;60.34
68556;HTU21D;55544;51.032;5.866;2023-06-10T03:53:56;21.24;60.01
68556;HTU21D;55544;51.032;5.866;2023-06-10T03:56:21;21.30;59.70
68556;HTU21D;55544;51.032;5.866;2023-06-10T03:58:48;21.37;59.57
68556;HTU21D;55544;51.032;5.866;2023-06-10T04:01:14;21.39;59.55
68556;HTU21D;55544;51.032;5.866;2023-06-10T04:03:39;21.39;59.52
68556;HTU21D;55544;51.032;5.866;2023-06-10T04:06:07;21.38;59.66
68556;HTU21D;55544;51.032;5.866;2023-06-10T04:08:33;21.36;59.79
68556;HTU21D;55544;51.032;5.866;2023-06-10T04:10:59;21.38;59.81
68556;HTU21D;55544;51.032;5.866;2023-06-10T04:13:26;21.37;59.92
68556;HTU21D;55544;51.032;5.866;2023-06-10T04:15:55;21.37;59.90
68556;HTU21D;55544;51.032;5.866;2023-06-10T04:18:21;21.32;60.12
68556;HTU21D;55544;51.032;5.866;2023-06-10T04:20:48;21.35;60.08
68556;HTU21D;55544;51.032;5.866;2023-06-10T04:23:14;21.37;59.96
68556;HTU21D;55544;51.032;5.866;2023-06-10T04:25:42;21.36;60.02
68556;HTU21D;55544;51.032;5.866;2023-06-10T04:28:08;21.35;60.17
68556;HTU21D;55544;51.032;5.866;2023-06-10T04:30:34;21.38;60.18
68556;HTU21D;55544;51.032;5.866;2023-06-10T04:33:00;21.42;60.18
68556;HTU21D;55544;51.032;5.866;2023-06-10T04:35:26;21.43;60.18
68556;HTU21D;55544;51.032;5.866;2023-06-10T04:37:54;21.43;60.34
68556;HTU21D;55544;51.032;5.866;2023-06-10T04:40:20;21.45;60.28
68556;HTU21D;55544;51.032;5.866;2023-06-10T04:42:46;21.48;60.34
68556;HTU21D;55544;51.032;5.866;2023-06-10T04:45:13;21.48;60.31
68556;HTU21D;55544;51.032;5.866;2023-06-10T04:47:39;21.51;60.48
68556;HTU21D;55544;51.032;5.866;2023-06-10T04:50:06;21.53;60.35
68556;HTU21D;55544;51.032;5.866;2023-06-10T04:52:31;21.49;60.58
68556;HTU21D;55544;51.032;5.866;2023-06-10T04:54:59;21.50;60.71
68556;HTU21D;55544;51.032;5.866;2023-06-10T04:57:25;21.53;60.62
68556;HTU21D;55544;51.032;5.866;2023-06-10T04:59:52;21.58;60.62
68556;HTU21D;55544;51.032;5.866;2023-06-10T05:02:18;21.63;60.65
68556;HTU21D;55544;51.032;5.866;2023-06-10T05:04:43;21.61;60.71
68556;HTU21D;55544;51.032;5.866;2023-06-10T05:07:09;21.46;61.32
68556;HTU21D;55544;51.032;5.866;2023-06-10T05:09:35;21.32;61.99
68556;HTU21D;55544;51.032;5.866;2023-06-10T05:12:01;21.24;62.41
68556;HTU21D;55544;51.032;5.866;2023-06-10T05:14:27;21.22;62.76
68556;HTU21D;55544;51.032;5.866;2023-06-10T05:16:53;21.27;62.81
68556;HTU21D;55544;51.032;5.866;2023-06-10T05:19:19;21.31;62.94
68556;HTU21D;55544;51.032;5.866;2023-06-10T05:21:45;21.33;62.95
68556;HTU21D;55544;51.032;5.866;2023-06-10T05:24:11;21.34;63.05
68556;HTU21D;55544;51.032;5.866;2023-06-10T05:26:37;21.39;63.10
68556;HTU21D;55544;51.032;5.866;2023-06-10T05:29:04;21.46;63.16
68556;HTU21D;55544;51.032;5.866;2023-06-10T05:31:30;21.54;62.91
68556;HTU21D;55544;51.032;5.866;2023-06-10T05:33:56;21.65;62.91
68556;HTU21D;55544;51.032;5.866;2023-06-10T05:36:21;21.75;63.05
68556;HTU21D;55544;51.032;5.866;2023-06-10T05:38:48;21.80;62.93
68556;HTU21D;55544;51.032;5.866;2023-06-10T05:41:13;21.84;62.82
68556;HTU21D;55544;51.032;5.866;2023-06-10T05:43:39;21.92;62.63
68556;HTU21D;55544;51.032;5.866;2023-06-10T05:46:05;22.03;62.37
68556;HTU21D;55544;51.032;5.866;2023-06-10T05:48:31;22.13;62.08
68556;HTU21D;55544;51.032;5.866;2023-06-10T05:50:56;22.24;61.56
68556;HTU21D;55544;51.032;5.866;2023-06-10T05:53:22;22.32;61.25
68556;HTU21D;55544;51.032;5.866;2023-06-10T05:55:48;22.41;60.93
68556;HTU21D;55544;51.032;5.866;2023-06-10T05:58:14;22.50;60.82
68556;HTU21D;55544;51.032;5.866;2023-06-10T06:00:40;22.57;60.68
68556;HTU21D;55544;51.032;5.866;2023-06-10T06:03:10;22.66;60.49
68556;HTU21D;55544;51.032;5.866;2023-06-10T06:05:38;22.76;60.23
68556;HTU21D;55544;51.032;5.866;2023-06-10T06:08:05;22.83;59.99
68556;HTU21D;55544;51.032;5.866;2023-06-10T06:10:31;22.92;59.98
68556;HTU21D;55544;51.032;5.866;2023-06-10T06:12:57;22.99;59.83
68556;HTU21D;55544;51.032;5.866;2023-06-10T06:15:22;23.08;59.62
68556;HTU21D;55544;51.032;5.866;2023-06-10T06:17:48;23.16;59.28
68556;HTU21D;55544;51.032;5.866;2023-06-10T06:20:14;23.23;59.07
68556;HTU21D;55544;51.032;5.866;2023-06-10T06:22:40;23.29;58.79
68556;HTU21D;55544;51.032;5.866;2023-06-10T06:25:06;23.34;58.74
68556;HTU21D;55544;51.032;5.866;2023-06-10T06:27:32;23.41;58.72
68556;HTU21D;55544;51.032;5.866;2023-06-10T06:29:57;23.47;58.68
68556;HTU21D;55544;51.032;5.866;2023-06-10T06:32:24;23.53;58.31
68556;HTU21D;55544;51.032;5.866;2023-06-10T06:34:53;23.55;57.80
68556;HTU21D;55544;51.032;5.866;2023-06-10T06:37:23;23.64;57.70
68556;HTU21D;55544;51.032;5.866;2023-06-10T06:39:54;23.75;57.57
68556;HTU21D;55544;51.032;5.866;2023-06-10T06:42:20;23.85;57.22
68556;HTU21D;55544;51.032;5.866;2023-06-10T06:45:09;23.96;57.05
68556;HTU21D;55544;51.032;5.866;2023-06-10T06:47:35;24.02;56.77
68556;HTU21D;55544;51.032;5.866;2023-06-10T06:50:01;24.12;56.35
68556;HTU21D;55544;51.032;5.866;2023-06-10T06:52:28;24.18;55.97
68556;HTU21D;55544;51.032;5.866;2023-06-10T06:54:53;24.30;55.20
68556;HTU21D;55544;51.032;5.866;2023-06-10T06:57:19;24.38;53.88
68556;HTU21D;55544;51.032;5.866;2023-06-10T06:59:45;24.49;53.58
68556;HTU21D;55544;51.032;5.866;2023-06-10T07:02:10;24.63;52.98
68556;HTU21D;55544;51.032;5.866;2023-06-10T07:04:36;24.84;51.69
68556;HTU21D;55544;51.032;5.866;2023-06-10T07:07:02;24.93;50.67
68556;HTU21D;55544;51.032;5.866;2023-06-10T07:09:28;25.05;50.23
68556;HTU21D;55544;51.032;5.866;2023-06-10T07:11:54;25.18;49.93
68556;HTU21D;55544;51.032;5.866;2023-06-10T07:14:19;25.31;49.05
68556;HTU21D;55544;51.032;5.866;2023-06-10T07:16:45;25.36;49.01
68556;HTU21D;55544;51.032;5.866;2023-06-10T07:19:11;25.48;48.84
68556;HTU21D;55544;51.032;5.866;2023-06-10T07:21:37;25.58;48.61
68556;HTU21D;55544;51.032;5.866;2023-06-10T07:24:03;25.74;48.63
68556;HTU21D;55544;51.032;5.866;2023-06-10T07:26:29;25.90;48.37
68556;HTU21D;55544;51.032;5.866;2023-06-10T07:28:55;26.03;47.89
68556;HTU21D;55544;51.032;5.866;2023-06-10T07:31:21;26.15;47.73
68556;HTU21D;55544;51.032;5.866;2023-06-10T07:33:47;26.24;47.27
68556;HTU21D;55544;51.032;5.866;2023-06-10T07:36:12;26.35;47.24
68556;HTU21D;55544;51.032;5.866;2023-06-10T07:38:38;26.46;47.07
68556;HTU21D;55544;51.032;5.866;2023-06-10T07:41:04;26.58;46.46
68556;HTU21D;55544;51.032;5.866;2023-06-10T07:43:30;26.71;46.31
68556;HTU21D;55544;51.032;5.866;2023-06-10T07:45:55;26.87;46.15
68556;HTU21D;55544;51.032;5.866;2023-06-10T07:48:21;27.02;45.56
68556;HTU21D;55544;51.032;5.866;2023-06-10T07:50:47;27.15;44.69
68556;HTU21D;55544;51.032;5.866;2023-06-10T07:53:12;27.26;43.55
68556;HTU21D;55544;51.032;5.866;2023-06-10T07:55:38;27.34;43.81
68556;HTU21D;55544;51.032;5.866;2023-06-10T07:58:04;27.43;43.86
68556;HTU21D;55544;51.032;5.866;2023-06-10T08:00:29;27.54;43.58
68556;HTU21D;55544;51.032;5.866;2023-06-10T08:02:55;27.67;42.81
68556;HTU21D;55544;51.032;5.866;2023-06-10T08:05:21;27.82;42.84
68556;HTU21D;55544;51.032;5.866;2023-06-10T08:07:47;27.94;41.73
68556;HTU21D;55544;51.032;5.866;2023-06-10T08:10:12;27.95;41.85
68556;HTU21D;55544;51.032;5.866;2023-06-10T08:12:38;28.03;41.53
68556;HTU21D;55544;51.032;5.866;2023-06-10T08:15:04;28.15;41.57
68556;HTU21D;55544;51.032;5.866;2023-06-10T08:17:31;28.30;41.56
68556;HTU21D;55544;51.032;5.866;2023-06-10T08:19:56;28.43;41.26
68556;HTU21D;55544;51.032;5.866;2023-06-10T08:22:22;28.52;40.89
68556;HTU21D;55544;51.032;5.866;2023-06-10T08:24:48;28.59;40.37
68556;HTU21D;55544;51.032;5.866;2023-06-10T08:27:13;28.68;40.51
68556;HTU21D;55544;51.032;5.866;2023-06-10T08:29:40;28.76;40.42
68556;HTU21D;55544;51.032;5.866;2023-06-10T08:32:06;28.85;39.81
68556;HTU21D;55544;51.032;5.866;2023-06-10T08:34:35;28.93;39.94
68556;HTU21D;55544;51.032;5.866;2023-06-10T08:37:02;29.07;39.35
68556;HTU21D;55544;51.032;5.866;2023-06-10T08:39:28;29.19;39.33
68556;HTU21D;55544;51.032;5.866;2023-06-10T08:44:35;29.50;39.26
68556;HTU21D;55544;51.032;5.866;2023-06-10T08:47:11;29.70;38.88
68556;HTU21D;55544;51.032;5.866;2023-06-10T08:49:43;29.74;37.66
68556;HTU21D;55544;51.032;5.866;2023-06-10T08:52:15;29.74;38.45
68556;HTU21D;55544;51.032;5.866;2023-06-10T08:54:43;29.87;38.43
68556;HTU21D;55544;51.032;5.866;2023-06-10T08:57:12;30.04;37.79
68556;HTU21D;55544;51.032;5.866;2023-06-10T08:59:38;30.22;37.40
68556;HTU21D;55544;51.032;5.866;2023-06-10T09:02:05;30.38;36.91
68556;HTU21D;55544;51.032;5.866;2023-06-10T09:04:32;30.47;36.98
68556;HTU21D;55544;51.032;5.866;2023-06-10T09:06:59;30.55;36.54
68556;HTU21D;55544;51.032;5.866;2023-06-10T09:09:28;30.64;36.39
68556;HTU21D;55544;51.032;5.866;2023-06-10T09:11:56;30.77;36.53
68556;HTU21D;55544;51.032;5.866;2023-06-10T09:14:22;30.95;36.10
68556;HTU21D;55544;51.032;5.866;2023-06-10T09:16:49;31.19;35.31
68556;HTU21D;55544;51.032;5.866;2023-06-10T09:19:16;31.38;34.60
68556;HTU21D;55544;51.032;5.866;2023-06-10T09:21:42;31.53;34.79
68556;HTU21D;55544;51.032;5.866;2023-06-10T09:24:08;31.73;34.75
68556;HTU21D;55544;51.032;5.866;2023-06-10T09:26:34;31.96;34.33
68556;HTU21D;55544;51.032;5.866;2023-06-10T09:29:07;32.22;34.02
68556;HTU21D;55544;51.032;5.866;2023-06-10T09:31:40;32.39;33.36
68556;HTU21D;55544;51.032;5.866;2023-06-10T09:36:36;32.59;32.73
68556;HTU21D;55544;51.032;5.866;2023-06-10T09:39:02;32.67;32.72
68556;HTU21D;55544;51.032;5.866;2023-06-10T09:41:33;32.77;32.29
68556;HTU21D;55544;51.032;5.866;2023-06-10T09:43:59;32.88;32.07
68556;HTU21D;55544;51.032;5.866;2023-06-10T09:46:31;32.97;31.80
68556;HTU21D;55544;51.032;5.866;2023-06-10T09:48:57;33.11;31.45
68556;HTU21D;55544;51.032;5.866;2023-06-10T09:51:23;33.20;30.94
68556;HTU21D;55544;51.032;5.866;2023-06-10T09:53:53;33.32;31.19
68556;HTU21D;55544;51.032;5.866;2023-06-10T09:56:19;33.52;30.96
68556;HTU21D;55544;51.032;5.866;2023-06-10T09:58:46;33.61;30.61
68556;HTU21D;55544;51.032;5.866;2023-06-10T10:01:14;33.64;30.69
68556;HTU21D;55544;51.032;5.866;2023-06-10T10:03:50;33.74;31.12
68556;HTU21D;55544;51.032;5.866;2023-06-10T10:06:17;33.88;30.88
68556;HTU21D;55544;51.032;5.866;2023-06-10T10:08:45;34.00;30.22
68556;HTU21D;55544;51.032;5.866;2023-06-10T10:11:12;34.10;30.22
68556;HTU21D;55544;51.032;5.866;2023-06-10T10:13:38;34.21;29.98
68556;HTU21D;55544;51.032;5.866;2023-06-10T10:16:11;34.29;30.35
68556;HTU21D;55544;51.032;5.866;2023-06-10T10:18:41;34.39;30.30
68556;HTU21D;55544;51.032;5.866;2023-06-10T10:21:12;34.48;30.32
68556;HTU21D;55544;51.032;5.866;2023-06-10T10:26:21;34.80;29.39
68556;HTU21D;55544;51.032;5.866;2023-06-10T10:28:58;34.71;28.67
68556;HTU21D;55544;51.032;5.866;2023-06-10T10:31:27;34.69;28.46
68556;HTU21D;55544;51.032;5.866;2023-06-10T10:33:59;34.67;29.00
68556;HTU21D;55544;51.032;5.866;2023-06-10T10:36:25;34.84;29.38
68556;HTU21D;55544;51.032;5.866;2023-06-10T10:38:51;35.06;29.23
68556;HTU21D;55544;51.032;5.866;2023-06-10T10:41:19;35.21;28.40
68556;HTU21D;55544;51.032;5.866;2023-06-10T10:43:47;35.20;28.68
68556;HTU21D;55544;51.032;5.866;2023-06-10T10:46:16;35.34;28.09
68556;HTU21D;55544;51.032;5.866;2023-06-10T10:48:44;35.44;27.67
68556;HTU21D;55544;51.032;5.866;2023-06-10T10:51:10;35.47;27.82
68556;HTU21D;55544;51.032;5.866;2023-06-10T10:53:40;35.62;27.23
68556;HTU21D;55544;51.032;5.866;2023-06-10T10:56:16;35.80;26.83
68556;HTU21D;55544;51.032;5.866;2023-06-10T10:59:03;35.65;26.50
68556;HTU21D;55544;51.032;5.866;2023-06-10T11:01:40;35.65;26.51
68556;HTU21D;55544;51.032;5.866;2023-06-10T11:04:08;35.81;26.26
68556;HTU21D;55544;51.032;5.866;2023-06-10T11:06:37;35.89;25.54
68556;HTU21D;55544;51.032;5.866;2023-06-10T11:09:26;35.86;25.36
68556;HTU21D;55544;51.032;5.866;2023-06-10T11:11:58;35.33;26.49
68556;HTU21D;55544;51.032;5.866;2023-06-10T11:14:28;35.15;27.13
68556;HTU21D;55544;51.032;5.866;2023-06-10T11:16:57;35.31;27.47
68556;HTU21D;55544;51.032;5.866;2023-06-10T11:19:37;35.67;27.01
68556;HTU21D;55544;51.032;5.866;2023-06-10T11:22:08;36.04;26.60
68556;HTU21D;55544;51.032;5.866;2023-06-10T11:24:35;36.38;25.46
68556;HTU21D;55544;51.032;5.866;2023-06-10T11:27:17;36.70;24.21
68556;HTU21D;55544;51.032;5.866;2023-06-10T11:32:31;36.19;24.02
68556;HTU21D;55544;51.032;5.866;2023-06-10T11:34:57;36.18;24.92
68556;HTU21D;55544;51.032;5.866;2023-06-10T11:37:23;36.39;25.23
68556;HTU21D;55544;51.032;5.866;2023-06-10T11:39:54;36.72;24.66
68556;HTU21D;55544;51.032;5.866;2023-06-10T11:42:21;36.76;23.62
68556;HTU21D;55544;51.032;5.866;2023-06-10T11:44:49;36.59;23.77
68556;HTU21D;55544;51.032;5.866;2023-06-10T11:47:15;36.58;24.35
68556;HTU21D;55544;51.032;5.866;2023-06-10T11:49:41;36.58;23.63
68556;HTU21D;55544;51.032;5.866;2023-06-10T11:52:06;36.44;24.79
68556;HTU21D;55544;51.032;5.866;2023-06-10T11:54:32;36.67;23.84
68556;HTU21D;55544;51.032;5.866;2023-06-10T11:56:59;36.71;23.21
68556;HTU21D;55544;51.032;5.866;2023-06-10T11:59:29;36.69;23.53
68556;HTU21D;55544;51.032;5.866;2023-06-10T12:01:55;36.90;23.26
68556;HTU21D;55544;51.032;5.866;2023-06-10T12:04:22;37.19;22.83
68556;HTU21D;55544;51.032;5.866;2023-06-10T12:06:50;37.45;22.94
68556;HTU21D;55544;51.032;5.866;2023-06-10T12:09:25;37.65;23.23
68556;HTU21D;55544;51.032;5.866;2023-06-10T12:11:57;37.47;21.25
68556;HTU21D;55544;51.032;5.866;2023-06-10T12:14:49;37.37;22.13
68556;HTU21D;55544;51.032;5.866;2023-06-10T12:17:15;37.64;21.80
68556;HTU21D;55544;51.032;5.866;2023-06-10T12:19:41;37.90;20.87
68556;HTU21D;55544;51.032;5.866;2023-06-10T12:22:07;37.95;20.32
68556;HTU21D;55544;51.032;5.866;2023-06-10T12:24:32;37.86;19.19
68556;HTU21D;55544;51.032;5.866;2023-06-10T12:26:58;37.52;19.98
68556;HTU21D;55544;51.032;5.866;2023-06-10T12:29:24;37.55;20.31
68556;HTU21D;55544;51.032;5.866;2023-06-10T12:32:04;37.92;19.94
68556;HTU21D;55544;51.032;5.866;2023-06-10T12:34:36;38.21;20.62
68556;HTU21D;55544;51.032;5.866;2023-06-10T12:37:10;38.48;20.24
68556;HTU21D;55544;51.032;5.866;2023-06-10T12:39:39;38.56;18.28
68556;HTU21D;55544;51.032;5.866;2023-06-10T12:42:06;38.43;18.60
68556;HTU21D;55544;51.032;5.866;2023-06-10T12:44:39;38.33;18.96
68556;HTU21D;55544;51.032;5.866;2023-06-10T12:47:09;38.56;18.92
68556;HTU21D;55544;51.032;5.866;2023-06-10T12:49:36;38.82;18.70
68556;HTU21D;55544;51.032;5.866;2023-06-10T12:52:03;39.04;18.54
68556;HTU21D;55544;51.032;5.866;2023-06-10T12:54:29;39.11;18.47
68556;HTU21D;55544;51.032;5.866;2023-06-10T12:56:55;38.98;18.38
68556;HTU21D;55544;51.032;5.866;2023-06-10T12:59:20;38.63;18.41
68556;HTU21D;55544;51.032;5.866;2023-06-10T13:01:53;38.51;18.56
68556;HTU21D;55544;51.032;5.866;2023-06-10T13:04:20;38.52;18.80
68556;HTU21D;55544;51.032;5.866;2023-06-10T13:06:47;38.86;18.79
68556;HTU21D;55544;51.032;5.866;2023-06-10T13:09:15;38.92;18.42
68556;HTU21D;55544;51.032;5.866;2023-06-10T13:11:41;39.09;18.44
68556;HTU21D;55544;51.032;5.866;2023-06-10T13:14:09;39.43;17.45
68556;HTU21D;55544;51.032;5.866;2023-06-10T13:16:35;39.64;16.82
68556;HTU21D;55544;51.032;5.866;2023-06-10T13:19:04;39.67;17.07
68556;HTU21D;55544;51.032;5.866;2023-06-10T13:21:32;39.71;16.90
68556;HTU21D;55544;51.032;5.866;2023-06-10T13:23:57;39.81;17.20
68556;HTU21D;55544;51.032;5.866;2023-06-10T13:26:23;39.62;17.73
68556;HTU21D;55544;51.032;5.866;2023-06-10T13:28:49;39.27;17.71
68556;HTU21D;55544;51.032;5.866;2023-06-10T13:31:15;39.12;18.52
68556;HTU21D;55544;51.032;5.866;2023-06-10T13:33:40;39.34;19.34
68556;HTU21D;55544;51.032;5.866;2023-06-10T13:36:09;39.61;19.40
68556;HTU21D;55544;51.032;5.866;2023-06-10T13:38:34;39.85;19.09
68556;HTU21D;55544;51.032;5.866;2023-06-10T13:41:00;40.09;18.93
68556;HTU21D;55544;51.032;5.866;2023-06-10T13:43:26;40.00;18.83
68556;HTU21D;55544;51.032;5.866;2023-06-10T13:45:52;39.76;18.57
68556;HTU21D;55544;51.032;5.866;2023-06-10T13:48:17;39.58;19.05
68556;HTU21D;55544;51.032;5.866;2023-06-10T13:50:43;39.71;19.30
68556;HTU21D;55544;51.032;5.866;2023-06-10T13:53:11;39.89;18.87
68556;HTU21D;55544;51.032;5.866;2023-06-10T13:55:37;40.11;18.54
68556;HTU21D;55544;51.032;5.866;2023-06-10T13:58:03;40.30;18.29
68556;HTU21D;55544;51.032;5.866;2023-06-10T14:00:29;40.42;17.99
68556;HTU21D;55544;51.032;5.866;2023-06-10T14:02:55;40.31;17.64
68556;HTU21D;55544;51.032;5.866;2023-06-10T14:05:20;40.26;18.15
68556;HTU21D;55544;51.032;5.866;2023-06-10T14:07:46;40.27;17.73
68556;HTU21D;55544;51.032;5.866;2023-06-10T14:10:12;40.36;17.57
68556;HTU21D;55544;51.032;5.866;2023-06-10T14:12:37;40.40;17.41
68556;HTU21D;55544;51.032;5.866;2023-06-10T14:15:03;40.45;17.09
68556;HTU21D;55544;51.032;5.866;2023-06-10T14:17:29;40.58;16.97
68556;HTU21D;55544;51.032;5.866;2023-06-10T14:19:55;40.72;16.71
68556;HTU21D;55544;51.032;5.866;2023-06-10T14:22:20;40.86;16.64
68556;HTU21D;55544;51.032;5.866;2023-06-10T14:24:46;40.92;16.65
68556;HTU21D;55544;51.032;5.866;2023-06-10T14:27:12;40.95;16.41
68556;HTU21D;55544;51.032;5.866;2023-06-10T14:29:38;40.98;16.08
68556;HTU21D;55544;51.032;5.866;2023-06-10T14:32:04;40.76;15.73
68556;HTU21D;55544;51.032;5.866;2023-06-10T14:34:30;40.35;16.90
68556;HTU21D;55544;51.032;5.866;2023-06-10T14:37:01;40.38;17.29
68556;HTU21D;55544;51.032;5.866;2023-06-10T14:39:29;40.18;17.07
68556;HTU21D;55544;51.032;5.866;2023-06-10T14:41:55;40.14;17.42
68556;HTU21D;55544;51.032;5.866;2023-06-10T14:44:21;40.23;17.18
68556;HTU21D;55544;51.032;5.866;2023-06-10T14:46:46;40.13;17.05
68556;HTU21D;55544;51.032;5.866;2023-06-10T14:49:13;39.81;17.28
68556;HTU21D;55544;51.032;5.866;2023-06-10T14:51:38;39.63;17.67
68556;HTU21D;55544;51.032;5.866;2023-06-10T14:54:04;39.80;17.69
68556;HTU21D;55544;51.032;5.866;2023-06-10T14:56:29;40.11;17.42
68556;HTU21D;55544;51.032;5.866;2023-06-10T14:58:55;40.16;17.15
68556;HTU21D;55544;51.032;5.866;2023-06-10T15:01:21;39.99;18.05
68556;HTU21D;55544;51.032;5.866;2023-06-10T15:03:47;40.11;18.09
68556;HTU21D;55544;51.032;5.866;2023-06-10T15:06:13;40.29;18.10
68556;HTU21D;55544;51.032;5.866;2023-06-10T15:08:38;40.42;17.79
68556;HTU21D;55544;51.032;5.866;2023-06-10T15:11:04;40.44;17.74
68556;HTU21D;55544;51.032;5.866;2023-06-10T15:13:30;40.55;17.67
68556;HTU21D;55544;51.032;5.866;2023-06-10T15:15:55;40.70;17.72
68556;HTU21D;55544;51.032;5.866;2023-06-10T15:18:21;40.86;17.42
68556;HTU21D;55544;51.032;5.866;2023-06-10T15:20:47;40.91;17.64
68556;HTU21D;55544;51.032;5.866;2023-06-10T15:23:13;40.76;17.77
68556;HTU21D;55544;51.032;5.866;2023-06-10T15:25:38;40.56;17.97
68556;HTU21D;55544;51.032;5.866;2023-06-10T15:28:06;40.36;17.97
68556;HTU21D;55544;51.032;5.866;2023-06-10T15:30:31;40.13;18.09